This is the latest recevied weather packets stored in our database for station/object DL1MMS-10. If no packets are shown the sender has not sent any weather packets the latest 1 day(s).
| Time | Temp. | Humidity | Pressure | Rain* | Wind** | Luminosity | Snow |
|---|---|---|---|---|---|---|---|
| 1778081968 | 14.44° C | 59% | 1008.5 hPa | 0 mm | - | - | - |
| 1778079866 | 23.89° C | 46% | 1007.3 hPa | 0 mm | - | - | - |
| 1778078064 | 18.89° C | 62% | 1007.5 hPa | 0 mm | - | - | - |
| 1778077764 | 18.89° C | 62% | 1007.5 hPa | 0 mm | - | - | - |
| 1778076863 | 18.89° C | 62% | 1007.3 hPa | 0 mm | - | - | - |
| 1778075962 | 17.22° C | 73% | 1007.3 hPa | 0 mm | - | - | - |
| 1778075662 | 16.67° C | 72% | 1007.4 hPa | 0 mm | - | - | - |
| 1778074761 | 12.78° C | 82% | 1007.5 hPa | 0 mm | - | - | - |
| 1778073560 | 11.11° C | 76% | 1008.1 hPa | 0 mm | - | - | - |
| 1778073260 | 11.67° C | 75% | 1008.1 hPa | 0 mm | - | - | - |
| 1778072659 | 13.89° C | 67% | 1008.1 hPa | 0 mm | - | - | - |
| 1778071758 | 16.11° C | 55% | 1007 hPa | 0 mm | - | - | - |
| 1778071458 | 16.67° C | 54% | 1006.5 hPa | 0 mm | - | - | - |
| 1778070557 | 18.33° C | 51% | 1006.1 hPa | 0 mm | - | - | - |
| 1778070257 | 18.89° C | 51% | 1006.1 hPa | 0 mm | - | - | - |
| 1778069656 | 18.89° C | 50% | 1006.4 hPa | 0 mm | - | - | - |
| 1778069356 | 18.89° C | 50% | 1006.6 hPa | 0 mm | - | - | - |
| 1778068455 | 19.44° C | 49% | 1006.5 hPa | 0 mm | - | - | - |
| 1778068155 | 19.44° C | 49% | 1006.6 hPa | 0 mm | - | - | - |
| 1778067254 | 19.44° C | 50% | 1006.5 hPa | 0 mm | - | - | - |
| 1778066353 | 18.89° C | 47% | 1006.8 hPa | 0 mm | - | - | - |
| 1778066053 | 19.44° C | 46% | 1006.9 hPa | 0 mm | - | - | - |
| 1778065152 | 22.22° C | 43% | 1006.9 hPa | 0 mm | - | - | - |
| 1778064251 | 24.44° C | 41% | 1007 hPa | 0 mm | - | - | - |
| 1778063951 | 24.44° C | 40% | 1007 hPa | 0 mm | - | - | - |
* Rain latest hour (hover to see other rain measurements)
** Current wind speed in m/s (hover to see current wind gust speed)